sensor_id;sensor_type;location;lat;lon;timestamp;pressure;altitude;pressure_sealevel;temperature;humidity
10978;BME280;5542;48.272;10.794;2023-12-14T00:01:27;94550.38;;;5.60;100.00
10978;BME280;5542;48.272;10.794;2023-12-14T00:03:54;94548.56;;;5.61;100.00
10978;BME280;5542;48.272;10.794;2023-12-14T00:06:21;94553.97;;;5.59;100.00
10978;BME280;5542;48.272;10.794;2023-12-14T00:08:48;94555.13;;;5.63;100.00
10978;BME280;5542;48.272;10.794;2023-12-14T00:11:15;94559.31;;;5.64;100.00
10978;BME280;5542;48.272;10.794;2023-12-14T00:13:42;94562.59;;;5.60;100.00
10978;BME280;5542;48.272;10.794;2023-12-14T00:16:08;94552.44;;;5.70;100.00
10978;BME280;5542;48.272;10.794;2023-12-14T00:18:36;94567.41;;;5.75;99.63
10978;BME280;5542;48.272;10.794;2023-12-14T00:21:03;94565.69;;;5.57;99.99
10978;BME280;5542;48.272;10.794;2023-12-14T00:23:29;94570.09;;;5.56;99.28
10978;BME280;5542;48.272;10.794;2023-12-14T00:25:57;94574.19;;;5.52;98.70
10978;BME280;5542;48.272;10.794;2023-12-14T00:28:24;94577.88;;;5.45;100.00
10978;BME280;5542;48.272;10.794;2023-12-14T00:30:50;94586.31;;;5.58;99.04
10978;BME280;5542;48.272;10.794;2023-12-14T00:33:17;94583.69;;;5.47;99.32
10978;BME280;5542;48.272;10.794;2023-12-14T00:35:44;94585.94;;;5.43;99.36
10978;BME280;5542;48.272;10.794;2023-12-14T00:38:10;94590.69;;;5.34;99.93
10978;BME280;5542;48.272;10.794;2023-12-14T00:40:37;94592.06;;;5.49;100.00
10978;BME280;5542;48.272;10.794;2023-12-14T00:43:05;94592.97;;;5.43;99.77
10978;BME280;5542;48.272;10.794;2023-12-14T00:45:31;94602.38;;;5.44;99.93
10978;BME280;5542;48.272;10.794;2023-12-14T00:47:58;94604.44;;;5.42;100.00
10978;BME280;5542;48.272;10.794;2023-12-14T00:50:24;94607.50;;;5.50;99.59
10978;BME280;5542;48.272;10.794;2023-12-14T00:52:51;94606.38;;;5.46;99.55
10978;BME280;5542;48.272;10.794;2023-12-14T00:55:18;94612.69;;;5.38;99.71
10978;BME280;5542;48.272;10.794;2023-12-14T00:57:44;94623.44;;;5.30;100.00
10978;BME280;5542;48.272;10.794;2023-12-14T01:00:13;94620.88;;;5.42;100.00
10978;BME280;5542;48.272;10.794;2023-12-14T01:02:40;94623.50;;;5.54;99.85
10978;BME280;5542;48.272;10.794;2023-12-14T01:05:07;94617.13;;;5.38;99.62
10978;BME280;5542;48.272;10.794;2023-12-14T01:07:33;94630.16;;;5.38;100.00
10978;BME280;5542;48.272;10.794;2023-12-14T01:10:00;94633.78;;;5.37;100.00
10978;BME280;5542;48.272;10.794;2023-12-14T01:12:27;94637.06;;;5.32;100.00
10978;BME280;5542;48.272;10.794;2023-12-14T01:14:53;94642.66;;;5.48;100.00
10978;BME280;5542;48.272;10.794;2023-12-14T01:17:21;94642.41;;;5.37;100.00
10978;BME280;5542;48.272;10.794;2023-12-14T01:19:48;94656.88;;;5.33;100.00
10978;BME280;5542;48.272;10.794;2023-12-14T01:22:14;94660.78;;;5.43;99.53
10978;BME280;5542;48.272;10.794;2023-12-14T01:24:41;94669.84;;;5.22;100.00
10978;BME280;5542;48.272;10.794;2023-12-14T01:27:07;94667.06;;;5.23;100.00
10978;BME280;5542;48.272;10.794;2023-12-14T01:29:35;94673.59;;;5.14;100.00
10978;BME280;5542;48.272;10.794;2023-12-14T01:32:01;94675.72;;;5.17;100.00
10978;BME280;5542;48.272;10.794;2023-12-14T01:34:29;94677.63;;;5.28;100.00
10978;BME280;5542;48.272;10.794;2023-12-14T01:36:56;94682.22;;;5.26;100.00
10978;BME280;5542;48.272;10.794;2023-12-14T01:39:22;94690.34;;;5.36;100.00
10978;BME280;5542;48.272;10.794;2023-12-14T01:41:49;94689.41;;;5.31;99.84
10978;BME280;5542;48.272;10.794;2023-12-14T01:44:16;94691.88;;;5.26;100.00
10978;BME280;5542;48.272;10.794;2023-12-14T01:46:42;94699.97;;;5.36;99.58
10978;BME280;5542;48.272;10.794;2023-12-14T01:49:09;94702.50;;;5.43;98.75
10978;BME280;5542;48.272;10.794;2023-12-14T01:51:37;94706.84;;;5.30;99.13
10978;BME280;5542;48.272;10.794;2023-12-14T01:54:03;94714.00;;;5.35;99.09
10978;BME280;5542;48.272;10.794;2023-12-14T01:56:30;94712.06;;;5.30;99.33
10978;BME280;5542;48.272;10.794;2023-12-14T01:58:57;94720.69;;;5.31;97.92
10978;BME280;5542;48.272;10.794;2023-12-14T02:01:28;94724.81;;;5.20;98.24
10978;BME280;5542;48.272;10.794;2023-12-14T02:04:02;94729.34;;;5.13;99.50
10978;BME280;5542;48.272;10.794;2023-12-14T02:06:29;94731.56;;;5.09;100.00
10978;BME280;5542;48.272;10.794;2023-12-14T02:08:57;94727.38;;;5.08;99.69
10978;BME280;5542;48.272;10.794;2023-12-14T02:11:23;94745.19;;;5.11;99.76
10978;BME280;5542;48.272;10.794;2023-12-14T02:13:50;94746.41;;;5.09;100.00
10978;BME280;5542;48.272;10.794;2023-12-14T02:16:16;94750.53;;;5.17;99.22
10978;BME280;5542;48.272;10.794;2023-12-14T02:18:43;94745.31;;;5.17;98.33
10978;BME280;5542;48.272;10.794;2023-12-14T02:21:10;94745.03;;;5.06;96.75
10978;BME280;5542;48.272;10.794;2023-12-14T02:23:43;94746.97;;;4.93;96.69
10978;BME280;5542;48.272;10.794;2023-12-14T02:26:10;94744.97;;;4.95;96.63
10978;BME280;5542;48.272;10.794;2023-12-14T02:28:36;94747.28;;;4.84;97.33
10978;BME280;5542;48.272;10.794;2023-12-14T02:31:03;94758.41;;;4.73;98.45
10978;BME280;5542;48.272;10.794;2023-12-14T02:33:30;94754.72;;;4.81;98.71
10978;BME280;5542;48.272;10.794;2023-12-14T02:35:56;94753.94;;;4.80;98.91
10978;BME280;5542;48.272;10.794;2023-12-14T02:38:23;94758.16;;;5.00;97.77
10978;BME280;5542;48.272;10.794;2023-12-14T02:40:51;94760.66;;;4.88;98.55
10978;BME280;5542;48.272;10.794;2023-12-14T02:43:18;94761.81;;;4.92;99.21
10978;BME280;5542;48.272;10.794;2023-12-14T02:45:45;94770.94;;;4.83;99.43
10978;BME280;5542;48.272;10.794;2023-12-14T02:48:12;94776.94;;;4.83;100.00
10978;BME280;5542;48.272;10.794;2023-12-14T02:50:38;94773.53;;;4.83;100.00
10978;BME280;5542;48.272;10.794;2023-12-14T02:53:05;94775.31;;;4.89;100.00
10978;BME280;5542;48.272;10.794;2023-12-14T02:55:31;94787.84;;;4.99;99.36
10978;BME280;5542;48.272;10.794;2023-12-14T02:57:59;94784.19;;;4.81;99.59
10978;BME280;5542;48.272;10.794;2023-12-14T03:00:26;94788.06;;;4.72;100.00
10978;BME280;5542;48.272;10.794;2023-12-14T03:02:52;94797.91;;;4.70;100.00
10978;BME280;5542;48.272;10.794;2023-12-14T03:05:19;94794.88;;;4.73;100.00
10978;BME280;5542;48.272;10.794;2023-12-14T03:07:46;94804.06;;;4.76;100.00
10978;BME280;5542;48.272;10.794;2023-12-14T03:10:12;94804.41;;;4.79;100.00
10978;BME280;5542;48.272;10.794;2023-12-14T03:12:39;94813.94;;;4.92;100.00
10978;BME280;5542;48.272;10.794;2023-12-14T03:15:07;94810.38;;;4.86;99.32
10978;BME280;5542;48.272;10.794;2023-12-14T03:17:34;94814.81;;;4.86;100.00
10978;BME280;5542;48.272;10.794;2023-12-14T03:20:01;94817.09;;;4.76;100.00
10978;BME280;5542;48.272;10.794;2023-12-14T03:22:28;94815.84;;;4.78;100.00
10978;BME280;5542;48.272;10.794;2023-12-14T03:24:55;94822.34;;;4.69;100.00
10978;BME280;5542;48.272;10.794;2023-12-14T03:27:21;94820.72;;;4.75;100.00
10978;BME280;5542;48.272;10.794;2023-12-14T03:29:49;94816.31;;;4.75;100.00
10978;BME280;5542;48.272;10.794;2023-12-14T03:32:17;94823.19;;;4.88;100.00
10978;BME280;5542;48.272;10.794;2023-12-14T03:34:44;94829.50;;;4.80;100.00
10978;BME280;5542;48.272;10.794;2023-12-14T03:37:11;94825.56;;;4.71;100.00
10978;BME280;5542;48.272;10.794;2023-12-14T03:39:37;94832.19;;;4.67;100.00
10978;BME280;5542;48.272;10.794;2023-12-14T03:42:04;94841.75;;;4.73;100.00
10978;BME280;5542;48.272;10.794;2023-12-14T03:44:31;94837.34;;;4.74;100.00
10978;BME280;5542;48.272;10.794;2023-12-14T03:46:57;94844.50;;;4.78;100.00
10978;BME280;5542;48.272;10.794;2023-12-14T03:49:26;94846.69;;;4.81;100.00
10978;BME280;5542;48.272;10.794;2023-12-14T03:51:53;94853.28;;;4.84;100.00
10978;BME280;5542;48.272;10.794;2023-12-14T03:54:20;94852.22;;;4.92;100.00
10978;BME280;5542;48.272;10.794;2023-12-14T03:56:46;94854.25;;;4.90;100.00
10978;BME280;5542;48.272;10.794;2023-12-14T03:59:13;94861.09;;;4.84;100.00
10978;BME280;5542;48.272;10.794;2023-12-14T04:01:39;94861.31;;;4.82;100.00
10978;BME280;5542;48.272;10.794;2023-12-14T04:04:06;94863.28;;;4.87;100.00
10978;BME280;5542;48.272;10.794;2023-12-14T04:06:34;94870.69;;;4.90;100.00
10978;BME280;5542;48.272;10.794;2023-12-14T04:09:00;94870.69;;;4.90;100.00
10978;BME280;5542;48.272;10.794;2023-12-14T04:11:27;94884.06;;;4.94;100.00
10978;BME280;5542;48.272;10.794;2023-12-14T04:13:55;94876.25;;;4.94;100.00
10978;BME280;5542;48.272;10.794;2023-12-14T04:16:22;94887.69;;;4.93;100.00
10978;BME280;5542;48.272;10.794;2023-12-14T04:18:48;94892.06;;;4.99;100.00
10978;BME280;5542;48.272;10.794;2023-12-14T04:21:15;94890.59;;;5.03;100.00
10978;BME280;5542;48.272;10.794;2023-12-14T04:23:43;94891.63;;;5.02;100.00
10978;BME280;5542;48.272;10.794;2023-12-14T04:26:11;94897.53;;;5.16;100.00
10978;BME280;5542;48.272;10.794;2023-12-14T04:28:39;94904.16;;;5.11;100.00
10978;BME280;5542;48.272;10.794;2023-12-14T04:31:05;94906.41;;;5.08;100.00
10978;BME280;5542;48.272;10.794;2023-12-14T04:33:32;94899.59;;;5.07;100.00
10978;BME280;5542;48.272;10.794;2023-12-14T04:35:58;94908.44;;;5.06;100.00
10978;BME280;5542;48.272;10.794;2023-12-14T04:38:25;94915.22;;;5.07;100.00
10978;BME280;5542;48.272;10.794;2023-12-14T04:40:53;94916.25;;;5.06;100.00
10978;BME280;5542;48.272;10.794;2023-12-14T04:43:19;94923.84;;;5.07;100.00
10978;BME280;5542;48.272;10.794;2023-12-14T04:45:46;94925.03;;;5.11;100.00
10978;BME280;5542;48.272;10.794;2023-12-14T04:48:12;94934.81;;;5.16;100.00
10978;BME280;5542;48.272;10.794;2023-12-14T04:50:39;94940.03;;;5.16;100.00
10978;BME280;5542;48.272;10.794;2023-12-14T04:53:06;94941.84;;;5.16;100.00
10978;BME280;5542;48.272;10.794;2023-12-14T04:55:32;94945.22;;;5.16;100.00
10978;BME280;5542;48.272;10.794;2023-12-14T04:58:00;94949.00;;;5.20;100.00
10978;BME280;5542;48.272;10.794;2023-12-14T05:00:27;94960.16;;;5.09;100.00
10978;BME280;5542;48.272;10.794;2023-12-14T05:02:53;94966.94;;;5.10;100.00
10978;BME280;5542;48.272;10.794;2023-12-14T05:05:20;94967.81;;;5.04;100.00
10978;BME280;5542;48.272;10.794;2023-12-14T05:07:46;94979.03;;;4.98;100.00
10978;BME280;5542;48.272;10.794;2023-12-14T05:10:13;94976.44;;;4.98;100.00
10978;BME280;5542;48.272;10.794;2023-12-14T05:12:39;94975.47;;;4.99;100.00
10978;BME280;5542;48.272;10.794;2023-12-14T05:15:08;94985.44;;;5.02;100.00
10978;BME280;5542;48.272;10.794;2023-12-14T05:17:35;94983.09;;;4.94;100.00
10978;BME280;5542;48.272;10.794;2023-12-14T05:20:03;94989.47;;;4.98;100.00
10978;BME280;5542;48.272;10.794;2023-12-14T05:22:30;94990.28;;;4.98;100.00
10978;BME280;5542;48.272;10.794;2023-12-14T05:24:57;94995.69;;;4.97;100.00
10978;BME280;5542;48.272;10.794;2023-12-14T05:27:23;94997.72;;;4.95;100.00
10978;BME280;5542;48.272;10.794;2023-12-14T05:29:50;95000.53;;;4.93;100.00
10978;BME280;5542;48.272;10.794;2023-12-14T05:32:18;95008.72;;;5.03;100.00
10978;BME280;5542;48.272;10.794;2023-12-14T05:34:44;95012.50;;;5.01;100.00
10978;BME280;5542;48.272;10.794;2023-12-14T05:37:11;95013.69;;;5.05;100.00
10978;BME280;5542;48.272;10.794;2023-12-14T05:39:41;95014.75;;;4.97;100.00
10978;BME280;5542;48.272;10.794;2023-12-14T05:42:07;95023.97;;;5.00;100.00
10978;BME280;5542;48.272;10.794;2023-12-14T05:44:34;95028.63;;;4.91;100.00
10978;BME280;5542;48.272;10.794;2023-12-14T05:47:00;95033.88;;;4.84;100.00
10978;BME280;5542;48.272;10.794;2023-12-14T05:49:28;95029.47;;;4.85;100.00
10978;BME280;5542;48.272;10.794;2023-12-14T05:51:55;95027.66;;;4.85;100.00
10978;BME280;5542;48.272;10.794;2023-12-14T05:54:24;95038.25;;;4.91;100.00
10978;BME280;5542;48.272;10.794;2023-12-14T05:56:51;95044.03;;;4.93;100.00
10978;BME280;5542;48.272;10.794;2023-12-14T05:59:17;95046.28;;;4.89;100.00
10978;BME280;5542;48.272;10.794;2023-12-14T06:01:44;95055.81;;;5.02;100.00
10978;BME280;5542;48.272;10.794;2023-12-14T06:04:11;95057.22;;;5.04;100.00
10978;BME280;5542;48.272;10.794;2023-12-14T06:06:39;95063.88;;;4.94;100.00
10978;BME280;5542;48.272;10.794;2023-12-14T06:09:05;95060.72;;;4.85;100.00
10978;BME280;5542;48.272;10.794;2023-12-14T06:11:32;95062.28;;;4.93;100.00
10978;BME280;5542;48.272;10.794;2023-12-14T06:13:59;95060.84;;;4.97;100.00
10978;BME280;5542;48.272;10.794;2023-12-14T06:16:26;95076.88;;;4.94;100.00
10978;BME280;5542;48.272;10.794;2023-12-14T06:18:52;95077.44;;;5.02;100.00
10978;BME280;5542;48.272;10.794;2023-12-14T06:21:19;95082.03;;;5.07;100.00
10978;BME280;5542;48.272;10.794;2023-12-14T06:23:47;95090.69;;;5.01;100.00
10978;BME280;5542;48.272;10.794;2023-12-14T06:26:13;95100.72;;;4.97;100.00
10978;BME280;5542;48.272;10.794;2023-12-14T06:28:40;95105.75;;;4.99;100.00
10978;BME280;5542;48.272;10.794;2023-12-14T06:31:12;95111.78;;;4.93;100.00
10978;BME280;5542;48.272;10.794;2023-12-14T06:33:39;95118.00;;;4.92;100.00
10978;BME280;5542;48.272;10.794;2023-12-14T06:36:06;95127.00;;;4.96;100.00
10978;BME280;5542;48.272;10.794;2023-12-14T06:38:33;95127.75;;;5.03;100.00
10978;BME280;5542;48.272;10.794;2023-12-14T06:41:01;95127.41;;;4.99;100.00
10978;BME280;5542;48.272;10.794;2023-12-14T06:43:28;95127.41;;;4.99;100.00
10978;BME280;5542;48.272;10.794;2023-12-14T06:45:55;95134.63;;;4.97;100.00
10978;BME280;5542;48.272;10.794;2023-12-14T06:48:21;95136.59;;;5.08;100.00
10978;BME280;5542;48.272;10.794;2023-12-14T06:50:48;95145.03;;;4.97;100.00
10978;BME280;5542;48.272;10.794;2023-12-14T06:53:14;95153.47;;;4.99;100.00
10978;BME280;5542;48.272;10.794;2023-12-14T06:55:41;95153.81;;;5.03;100.00
10978;BME280;5542;48.272;10.794;2023-12-14T06:58:09;95160.56;;;5.17;100.00
10978;BME280;5542;48.272;10.794;2023-12-14T07:00:37;95162.66;;;5.08;100.00
10978;BME280;5542;48.272;10.794;2023-12-14T07:03:03;95163.81;;;5.12;100.00
10978;BME280;5542;48.272;10.794;2023-12-14T07:05:30;95171.44;;;5.07;100.00
10978;BME280;5542;48.272;10.794;2023-12-14T07:07:57;95171.44;;;5.14;100.00
10978;BME280;5542;48.272;10.794;2023-12-14T07:10:24;95172.84;;;5.10;100.00
10978;BME280;5542;48.272;10.794;2023-12-14T07:12:51;95180.28;;;5.13;100.00
10978;BME280;5542;48.272;10.794;2023-12-14T07:15:19;95183.47;;;5.15;100.00
10978;BME280;5542;48.272;10.794;2023-12-14T07:17:45;95189.00;;;5.32;100.00
10978;BME280;5542;48.272;10.794;2023-12-14T07:20:12;95189.63;;;5.27;100.00
10978;BME280;5542;48.272;10.794;2023-12-14T07:22:39;95205.84;;;5.29;100.00
10978;BME280;5542;48.272;10.794;2023-12-14T07:25:06;95199.28;;;5.20;100.00
10978;BME280;5542;48.272;10.794;2023-12-14T07:27:33;95202.50;;;5.16;100.00
10978;BME280;5542;48.272;10.794;2023-12-14T07:30:00;95199.16;;;5.08;100.00
10978;BME280;5542;48.272;10.794;2023-12-14T07:32:27;95208.94;;;5.13;100.00
10978;BME280;5542;48.272;10.794;2023-12-14T07:34:54;95214.16;;;5.13;100.00
10978;BME280;5542;48.272;10.794;2023-12-14T07:37:21;95216.78;;;5.13;100.00
10978;BME280;5542;48.272;10.794;2023-12-14T07:39:47;95216.16;;;5.11;100.00
10978;BME280;5542;48.272;10.794;2023-12-14T07:42:14;95213.91;;;5.21;100.00
10978;BME280;5542;48.272;10.794;2023-12-14T07:44:44;95222.53;;;5.22;100.00
10978;BME280;5542;48.272;10.794;2023-12-14T07:47:11;95222.75;;;5.20;100.00
10978;BME280;5542;48.272;10.794;2023-12-14T07:49:39;95224.16;;;5.16;100.00
10978;BME280;5542;48.272;10.794;2023-12-14T07:52:06;95232.78;;;5.23;100.00
10978;BME280;5542;48.272;10.794;2023-12-14T07:54:32;95237.97;;;5.23;100.00
10978;BME280;5542;48.272;10.794;2023-12-14T07:56:59;95240.78;;;5.22;100.00
10978;BME280;5542;48.272;10.794;2023-12-14T07:59:25;95240.97;;;5.27;100.00
10978;BME280;5542;48.272;10.794;2023-12-14T08:01:52;95242.19;;;5.24;100.00
10978;BME280;5542;48.272;10.794;2023-12-14T08:04:19;95248.00;;;5.20;100.00
10978;BME280;5542;48.272;10.794;2023-12-14T08:06:46;95252.81;;;5.23;100.00
10978;BME280;5542;48.272;10.794;2023-12-14T08:09:13;95254.81;;;5.21;100.00
10978;BME280;5542;48.272;10.794;2023-12-14T08:11:40;95264.06;;;5.23;100.00
10978;BME280;5542;48.272;10.794;2023-12-14T08:14:06;95267.69;;;5.22;100.00
10978;BME280;5542;48.272;10.794;2023-12-14T08:16:33;95269.47;;;5.22;100.00
10978;BME280;5542;48.272;10.794;2023-12-14T08:19:00;95274.06;;;5.26;100.00
10978;BME280;5542;48.272;10.794;2023-12-14T08:21:26;95276.47;;;5.21;100.00
10978;BME280;5542;48.272;10.794;2023-12-14T08:23:55;95277.91;;;5.10;100.00
10978;BME280;5542;48.272;10.794;2023-12-14T08:26:22;95282.53;;;5.15;100.00
10978;BME280;5542;48.272;10.794;2023-12-14T08:28:48;95289.34;;;5.23;100.00
10978;BME280;5542;48.272;10.794;2023-12-14T08:31:15;95297.72;;;5.25;100.00
10978;BME280;5542;48.272;10.794;2023-12-14T08:33:42;95297.72;;;5.25;100.00
10978;BME280;5542;48.272;10.794;2023-12-14T08:36:08;95304.94;;;5.29;100.00
10978;BME280;5542;48.272;10.794;2023-12-14T08:38:35;95303.75;;;5.32;100.00
10978;BME280;5542;48.272;10.794;2023-12-14T08:41:03;95316.19;;;5.23;100.00
10978;BME280;5542;48.272;10.794;2023-12-14T08:43:30;95319.75;;;5.42;100.00
10978;BME280;5542;48.272;10.794;2023-12-14T08:45:56;95319.13;;;5.47;100.00
10978;BME280;5542;48.272;10.794;2023-12-14T08:48:23;95328.16;;;5.51;100.00
10978;BME280;5542;48.272;10.794;2023-12-14T08:50:49;95334.41;;;5.43;100.00
10978;BME280;5542;48.272;10.794;2023-12-14T08:53:16;95337.00;;;5.43;100.00
10978;BME280;5542;48.272;10.794;2023-12-14T08:55:43;95342.19;;;5.50;100.00
10978;BME280;5542;48.272;10.794;2023-12-14T08:58:11;95341.41;;;5.43;100.00
10978;BME280;5542;48.272;10.794;2023-12-14T09:00:38;95346.63;;;5.36;100.00
10978;BME280;5542;48.272;10.794;2023-12-14T09:03:04;95343.00;;;5.44;100.00
10978;BME280;5542;48.272;10.794;2023-12-14T09:05:31;95354.28;;;5.37;100.00
10978;BME280;5542;48.272;10.794;2023-12-14T09:07:58;95363.09;;;5.43;100.00
10978;BME280;5542;48.272;10.794;2023-12-14T09:10:24;95369.91;;;5.51;100.00
10978;BME280;5542;48.272;10.794;2023-12-14T09:12:51;95367.88;;;5.53;100.00
10978;BME280;5542;48.272;10.794;2023-12-14T09:15:19;95373.91;;;5.40;100.00
10978;BME280;5542;48.272;10.794;2023-12-14T09:17:46;95377.91;;;5.56;100.00
10978;BME280;5542;48.272;10.794;2023-12-14T09:20:13;95383.91;;;5.50;100.00
10978;BME280;5542;48.272;10.794;2023-12-14T09:22:40;95388.75;;;5.53;100.00
10978;BME280;5542;48.272;10.794;2023-12-14T09:25:07;95395.13;;;5.70;100.00
10978;BME280;5542;48.272;10.794;2023-12-14T09:27:34;95394.94;;;5.58;100.00
10978;BME280;5542;48.272;10.794;2023-12-14T09:30:01;95410.19;;;5.55;100.00
10978;BME280;5542;48.272;10.794;2023-12-14T09:32:29;95405.97;;;5.54;100.00
10978;BME280;5542;48.272;10.794;2023-12-14T09:34:56;95414.78;;;5.59;100.00
10978;BME280;5542;48.272;10.794;2023-12-14T09:37:22;95417.59;;;5.71;100.00
10978;BME280;5542;48.272;10.794;2023-12-14T09:39:49;95413.97;;;5.72;100.00
10978;BME280;5542;48.272;10.794;2023-12-14T09:42:18;95417.78;;;5.70;100.00
10978;BME280;5542;48.272;10.794;2023-12-14T09:44:46;95406.75;;;5.68;100.00
10978;BME280;5542;48.272;10.794;2023-12-14T09:47:13;95411.38;;;5.65;100.00
10978;BME280;5542;48.272;10.794;2023-12-14T09:49:41;95417.00;;;5.62;100.00
10978;BME280;5542;48.272;10.794;2023-12-14T09:52:08;95408.38;;;5.55;100.00
10978;BME280;5542;48.272;10.794;2023-12-14T09:54:35;95413.81;;;5.54;100.00
10978;BME280;5542;48.272;10.794;2023-12-14T09:57:01;95420.00;;;5.59;100.00
10978;BME280;5542;48.272;10.794;2023-12-14T09:59:28;95415.22;;;5.56;100.00
10978;BME280;5542;48.272;10.794;2023-12-14T10:02:08;95419.84;;;5.41;100.00
10978;BME280;5542;48.272;10.794;2023-12-14T10:04:35;95418.44;;;5.45;100.00
10978;BME280;5542;48.272;10.794;2023-12-14T10:07:03;95425.28;;;5.39;100.00
10978;BME280;5542;48.272;10.794;2023-12-14T10:09:32;95423.69;;;5.32;100.00
10978;BME280;5542;48.272;10.794;2023-12-14T10:12:03;95433.72;;;5.28;100.00
10978;BME280;5542;48.272;10.794;2023-12-14T10:14:30;95439.72;;;5.35;100.00
10978;BME280;5542;48.272;10.794;2023-12-14T10:16:58;95448.16;;;5.51;100.00
10978;BME280;5542;48.272;10.794;2023-12-14T10:19:24;95441.91;;;5.45;100.00
10978;BME280;5542;48.272;10.794;2023-12-14T10:21:51;95449.75;;;5.52;100.00
10978;BME280;5542;48.272;10.794;2023-12-14T10:24:19;95450.34;;;5.60;100.00
10978;BME280;5542;48.272;10.794;2023-12-14T10:26:46;95456.34;;;5.68;100.00
10978;BME280;5542;48.272;10.794;2023-12-14T10:29:13;95459.31;;;5.78;100.00
10978;BME280;5542;48.272;10.794;2023-12-14T10:31:40;95461.31;;;5.96;100.00
10978;BME280;5542;48.272;10.794;2023-12-14T10:34:06;95459.72;;;5.95;100.00
10978;BME280;5542;48.272;10.794;2023-12-14T10:36:34;95466.31;;;6.04;100.00
10978;BME280;5542;48.272;10.794;2023-12-14T10:39:02;95464.06;;;6.14;100.00
10978;BME280;5542;48.272;10.794;2023-12-14T10:41:33;95465.31;;;6.05;100.00
10978;BME280;5542;48.272;10.794;2023-12-14T10:44:00;95462.47;;;6.06;100.00
10978;BME280;5542;48.272;10.794;2023-12-14T10:46:28;95470.94;;;6.08;100.00
10978;BME280;5542;48.272;10.794;2023-12-14T10:48:54;95473.47;;;6.28;99.36
10978;BME280;5542;48.272;10.794;2023-12-14T10:51:23;95471.28;;;6.19;99.02
10978;BME280;5542;48.272;10.794;2023-12-14T10:53:50;95478.31;;;6.18;98.98
10978;BME280;5542;48.272;10.794;2023-12-14T10:56:18;95478.09;;;6.20;99.36
10978;BME280;5542;48.272;10.794;2023-12-14T10:58:48;95479.31;;;6.17;99.58
10978;BME280;5542;48.272;10.794;2023-12-14T11:01:14;95483.31;;;6.20;98.92
10978;BME280;5542;48.272;10.794;2023-12-14T11:03:42;95486.16;;;6.11;98.85
10978;BME280;5542;48.272;10.794;2023-12-14T11:06:20;95485.13;;;6.19;99.11
10978;BME280;5542;48.272;10.794;2023-12-14T11:08:48;95480.50;;;6.28;98.86
10978;BME280;5542;48.272;10.794;2023-12-14T11:11:15;95484.03;;;6.40;97.86
10978;BME280;5542;48.272;10.794;2023-12-14T11:13:47;95487.09;;;6.30;98.29
10978;BME280;5542;48.272;10.794;2023-12-14T11:16:19;95492.56;;;6.22;97.33
10978;BME280;5542;48.272;10.794;2023-12-14T11:18:46;95493.56;;;6.21;97.17
10978;BME280;5542;48.272;10.794;2023-12-14T11:21:17;95505.38;;;6.30;97.56
10978;BME280;5542;48.272;10.794;2023-12-14T11:23:44;95501.72;;;6.45;97.68
10978;BME280;5542;48.272;10.794;2023-12-14T11:26:11;95506.00;;;6.32;97.96
10978;BME280;5542;48.272;10.794;2023-12-14T11:28:38;95503.78;;;6.29;98.46
10978;BME280;5542;48.272;10.794;2023-12-14T11:31:11;95512.41;;;6.36;97.49
10978;BME280;5542;48.272;10.794;2023-12-14T11:33:37;95511.22;;;6.32;97.29
10978;BME280;5542;48.272;10.794;2023-12-14T11:36:04;95508.13;;;6.49;96.16
10978;BME280;5542;48.272;10.794;2023-12-14T11:38:31;95510.91;;;6.54;96.20
10978;BME280;5542;48.272;10.794;2023-12-14T11:40:58;95520.16;;;6.50;97.13
10978;BME280;5542;48.272;10.794;2023-12-14T11:43:26;95516.75;;;6.56;96.73
10978;BME280;5542;48.272;10.794;2023-12-14T11:45:53;95526.41;;;6.55;96.16
10978;BME280;5542;48.272;10.794;2023-12-14T11:48:22;95526.78;;;6.59;96.14
10978;BME280;5542;48.272;10.794;2023-12-14T11:50:48;95530.16;;;6.66;96.24
10978;BME280;5542;48.272;10.794;2023-12-14T11:53:15;95529.44;;;6.90;93.71
10978;BME280;5542;48.272;10.794;2023-12-14T11:55:42;95535.34;;;6.73;94.86
10978;BME280;5542;48.272;10.794;2023-12-14T11:58:12;95534.56;;;6.72;95.72
10978;BME280;5542;48.272;10.794;2023-12-14T12:00:40;95536.59;;;6.70;94.48
10978;BME280;5542;48.272;10.794;2023-12-14T12:03:08;95537.22;;;6.65;95.37
10978;BME280;5542;48.272;10.794;2023-12-14T12:05:36;95546.03;;;6.71;94.94
10978;BME280;5542;48.272;10.794;2023-12-14T12:08:04;95539.38;;;6.75;95.30
10978;BME280;5542;48.272;10.794;2023-12-14T12:10:31;95542.50;;;6.90;93.92
10978;BME280;5542;48.272;10.794;2023-12-14T12:13:01;95546.38;;;6.81;94.26
10978;BME280;5542;48.272;10.794;2023-12-14T12:15:30;95548.63;;;6.71;94.11
10978;BME280;5542;48.272;10.794;2023-12-14T12:17:57;95547.84;;;6.64;95.05
10978;BME280;5542;48.272;10.794;2023-12-14T12:20:24;95546.44;;;6.68;93.84
10978;BME280;5542;48.272;10.794;2023-12-14T12:22:52;95542.44;;;6.59;95.01
10978;BME280;5542;48.272;10.794;2023-12-14T12:25:19;95548.22;;;6.74;95.59
10978;BME280;5542;48.272;10.794;2023-12-14T12:27:46;95549.44;;;6.72;96.13
10978;BME280;5542;48.272;10.794;2023-12-14T12:30:13;95544.44;;;6.70;95.38
10978;BME280;5542;48.272;10.794;2023-12-14T12:32:40;95542.19;;;6.74;95.59
10978;BME280;5542;48.272;10.794;2023-12-14T12:35:07;95541.81;;;6.70;95.66
10978;BME280;5542;48.272;10.794;2023-12-14T12:37:33;95546.16;;;6.89;94.42
10978;BME280;5542;48.272;10.794;2023-12-14T12:40:02;95550.97;;;6.86;94.37
10978;BME280;5542;48.272;10.794;2023-12-14T12:42:29;95545.78;;;6.79;94.21
10978;BME280;5542;48.272;10.794;2023-12-14T12:44:56;95564.53;;;6.70;95.22
10978;BME280;5542;48.272;10.794;2023-12-14T12:47:23;95563.25;;;6.79;94.88
10978;BME280;5542;48.272;10.794;2023-12-14T12:49:49;95565.13;;;6.72;95.23
10978;BME280;5542;48.272;10.794;2023-12-14T12:52:16;95567.69;;;6.78;95.07
10978;BME280;5542;48.272;10.794;2023-12-14T12:54:43;95565.06;;;6.85;95.12
10978;BME280;5542;48.272;10.794;2023-12-14T12:57:11;95573.25;;;6.95;93.22
10978;BME280;5542;48.272;10.794;2023-12-14T12:59:37;95569.69;;;6.83;94.65
10978;BME280;5542;48.272;10.794;2023-12-14T13:02:04;95575.91;;;6.88;95.50